sensor_id;sensor_type;location;lat;lon;timestamp;temperature;humidity
66594;DHT22;53450;42.584;23.366;2022-08-03T00:01:43;16.97;66.71
66594;DHT22;53450;42.584;23.366;2022-08-03T00:04:09;16.96;67.23
66594;DHT22;53450;42.584;23.366;2022-08-03T00:06:36;17.04;67.35
66594;DHT22;53450;42.584;23.366;2022-08-03T00:09:03;17.11;66.56
66594;DHT22;53450;42.584;23.366;2022-08-03T00:11:29;17.19;67.02
66594;DHT22;53450;42.584;23.366;2022-08-03T00:13:55;17.16;66.34
66594;DHT22;53450;42.584;23.366;2022-08-03T00:16:20;17.20;65.62
66594;DHT22;53450;42.584;23.366;2022-08-03T00:18:46;17.16;65.83
66594;DHT22;53450;42.584;23.366;2022-08-03T00:21:12;17.20;65.70
66594;DHT22;53450;42.584;23.366;2022-08-03T00:23:37;17.02;67.15
66594;DHT22;53450;42.584;23.366;2022-08-03T00:26:03;16.42;69.05
66594;DHT22;53450;42.584;23.366;2022-08-03T00:28:28;16.69;68.88
66594;DHT22;53450;42.584;23.366;2022-08-03T00:30:54;16.72;68.46
66594;DHT22;53450;42.584;23.366;2022-08-03T00:33:20;16.87;67.90
66594;DHT22;53450;42.584;23.366;2022-08-03T00:35:46;16.89;67.31
66594;DHT22;53450;42.584;23.366;2022-08-03T00:38:12;16.96;67.40
66594;DHT22;53450;42.584;23.366;2022-08-03T00:40:39;16.90;66.25
66594;DHT22;53450;42.584;23.366;2022-08-03T00:43:06;16.96;66.67
66594;DHT22;53450;42.584;23.366;2022-08-03T00:45:35;16.97;66.84
66594;DHT22;53450;42.584;23.366;2022-08-03T00:48:01;16.93;67.20
66594;DHT22;53450;42.584;23.366;2022-08-03T00:51:04;16.86;67.17
66594;DHT22;53450;42.584;23.366;2022-08-03T00:53:30;16.84;66.09
66594;DHT22;53450;42.584;23.366;2022-08-03T00:55:56;16.94;66.37
66594;DHT22;53450;42.584;23.366;2022-08-03T00:58:22;16.99;66.27
66594;DHT22;53450;42.584;23.366;2022-08-03T01:00:49;16.99;66.09
66594;DHT22;53450;42.584;23.366;2022-08-03T01:03:14;16.96;65.91
66594;DHT22;53450;42.584;23.366;2022-08-03T01:06:00;17.04;66.14
66594;DHT22;53450;42.584;23.366;2022-08-03T01:09:11;17.09;66.22
66594;DHT22;53450;42.584;23.366;2022-08-03T01:12:24;17.14;67.41
66594;DHT22;53450;42.584;23.366;2022-08-03T01:14:59;17.11;67.51
66594;DHT22;53450;42.584;23.366;2022-08-03T01:17:39;17.09;67.70
66594;DHT22;53450;42.584;23.366;2022-08-03T01:20:13;16.97;67.32
66594;DHT22;53450;42.584;23.366;2022-08-03T01:26:40;16.84;67.80
66594;DHT22;53450;42.584;23.366;2022-08-03T01:31:52;16.79;68.09
66594;DHT22;53450;42.584;23.366;2022-08-03T01:34:19;16.71;67.97
66594;DHT22;53450;42.584;23.366;2022-08-03T01:36:50;16.38;69.07
66594;DHT22;53450;42.584;23.366;2022-08-03T01:39:18;16.41;68.96
66594;DHT22;53450;42.584;23.366;2022-08-03T01:41:48;16.47;69.02
66594;DHT22;53450;42.584;23.366;2022-08-03T01:44:15;16.51;69.52
66594;DHT22;53450;42.584;23.366;2022-08-03T01:46:41;16.51;69.23
66594;DHT22;53450;42.584;23.366;2022-08-03T01:49:10;16.42;69.49
66594;DHT22;53450;42.584;23.366;2022-08-03T01:51:41;16.41;69.49
66594;DHT22;53450;42.584;23.366;2022-08-03T01:54:09;16.36;70.07
66594;DHT22;53450;42.584;23.366;2022-08-03T01:56:37;16.25;70.16
66594;DHT22;53450;42.584;23.366;2022-08-03T01:59:05;16.20;70.79
66594;DHT22;53450;42.584;23.366;2022-08-03T02:01:32;16.13;70.60
66594;DHT22;53450;42.584;23.366;2022-08-03T02:03:59;16.07;71.05
66594;DHT22;53450;42.584;23.366;2022-08-03T02:06:25;16.07;70.89
66594;DHT22;53450;42.584;23.366;2022-08-03T02:08:52;15.97;70.93
66594;DHT22;53450;42.584;23.366;2022-08-03T02:11:19;16.08;70.24
66594;DHT22;53450;42.584;23.366;2022-08-03T02:13:47;16.17;70.36
66594;DHT22;53450;42.584;23.366;2022-08-03T02:16:14;16.17;70.24
66594;DHT22;53450;42.584;23.366;2022-08-03T02:18:42;16.24;70.32
66594;DHT22;53450;42.584;23.366;2022-08-03T02:21:09;16.40;69.33
66594;DHT22;53450;42.584;23.366;2022-08-03T02:23:36;16.52;67.40
66594;DHT22;53450;42.584;23.366;2022-08-03T02:26:04;16.73;66.35
66594;DHT22;53450;42.584;23.366;2022-08-03T02:28:34;16.97;65.49
66594;DHT22;53450;42.584;23.366;2022-08-03T02:31:04;16.96;67.81
66594;DHT22;53450;42.584;23.366;2022-08-03T02:33:33;16.77;68.17
66594;DHT22;53450;42.584;23.366;2022-08-03T02:36:01;16.72;68.46
66594;DHT22;53450;42.584;23.366;2022-08-03T02:38:32;16.66;68.19
66594;DHT22;53450;42.584;23.366;2022-08-03T02:41:04;16.32;69.52
66594;DHT22;53450;42.584;23.366;2022-08-03T02:43:34;16.17;69.93
66594;DHT22;53450;42.584;23.366;2022-08-03T02:46:00;16.21;70.88
66594;DHT22;53450;42.584;23.366;2022-08-03T02:48:28;16.13;70.88
66594;DHT22;53450;42.584;23.366;2022-08-03T02:50:57;15.86;71.70
66594;DHT22;53450;42.584;23.366;2022-08-03T02:53:48;15.67;72.20
66594;DHT22;53450;42.584;23.366;2022-08-03T02:56:40;15.69;73.08
66594;DHT22;53450;42.584;23.366;2022-08-03T02:59:08;15.49;73.30
66594;DHT22;53450;42.584;23.366;2022-08-03T03:01:34;15.56;73.08
66594;DHT22;53450;42.584;23.366;2022-08-03T03:04:00;15.57;73.03
66594;DHT22;53450;42.584;23.366;2022-08-03T03:06:26;15.74;73.31
66594;DHT22;53450;42.584;23.366;2022-08-03T03:08:53;15.87;72.96
66594;DHT22;53450;42.584;23.366;2022-08-03T03:11:20;15.87;72.86
66594;DHT22;53450;42.584;23.366;2022-08-03T03:13:48;15.89;72.78
66594;DHT22;53450;42.584;23.366;2022-08-03T03:16:14;15.94;72.58
66594;DHT22;53450;42.584;23.366;2022-08-03T03:18:42;15.80;72.64
66594;DHT22;53450;42.584;23.366;2022-08-03T03:21:09;15.70;72.75
66594;DHT22;53450;42.584;23.366;2022-08-03T03:23:36;15.55;73.81
66594;DHT22;53450;42.584;23.366;2022-08-03T03:26:03;15.50;73.60
66594;DHT22;53450;42.584;23.366;2022-08-03T03:28:30;15.46;73.84
66594;DHT22;53450;42.584;23.366;2022-08-03T03:30:57;15.31;74.50
66594;DHT22;53450;42.584;23.366;2022-08-03T03:33:23;15.42;74.50
66594;DHT22;53450;42.584;23.366;2022-08-03T03:35:49;15.50;74.73
66594;DHT22;53450;42.584;23.366;2022-08-03T03:38:16;15.52;74.49
66594;DHT22;53450;42.584;23.366;2022-08-03T03:40:42;15.52;74.32
66594;DHT22;53450;42.584;23.366;2022-08-03T03:43:10;15.55;74.51
66594;DHT22;53450;42.584;23.366;2022-08-03T03:45:36;15.39;75.16
66594;DHT22;53450;42.584;23.366;2022-08-03T03:48:06;15.29;75.01
66594;DHT22;53450;42.584;23.366;2022-08-03T03:50:33;15.50;74.67
66594;DHT22;53450;42.584;23.366;2022-08-03T03:52:59;15.77;74.40
66594;DHT22;53450;42.584;23.366;2022-08-03T03:55:24;15.93;74.36
66594;DHT22;53450;42.584;23.366;2022-08-03T03:57:50;15.84;75.06
66594;DHT22;53450;42.584;23.366;2022-08-03T04:00:17;16.36;74.15
66594;DHT22;53450;42.584;23.366;2022-08-03T04:02:44;16.96;71.91
66594;DHT22;53450;42.584;23.366;2022-08-03T04:05:10;17.55;70.16
66594;DHT22;53450;42.584;23.366;2022-08-03T04:07:56;18.26;68.44
66594;DHT22;53450;42.584;23.366;2022-08-03T04:10:42;18.91;66.04
66594;DHT22;53450;42.584;23.366;2022-08-03T04:13:33;19.57;63.80
66594;DHT22;53450;42.584;23.366;2022-08-03T04:16:00;20.46;60.97
66594;DHT22;53450;42.584;23.366;2022-08-03T04:18:28;20.93;59.23
66594;DHT22;53450;42.584;23.366;2022-08-03T04:20:58;21.86;56.21
66594;DHT22;53450;42.584;23.366;2022-08-03T04:23:26;22.13;54.79
66594;DHT22;53450;42.584;23.366;2022-08-03T04:25:53;21.58;55.21
66594;DHT22;53450;42.584;23.366;2022-08-03T04:28:20;20.68;57.26
66594;DHT22;53450;42.584;23.366;2022-08-03T04:30:47;19.90;60.54
66594;DHT22;53450;42.584;23.366;2022-08-03T04:33:16;19.36;62.76
66594;DHT22;53450;42.584;23.366;2022-08-03T04:35:45;19.04;65.01
66594;DHT22;53450;42.584;23.366;2022-08-03T04:38:12;18.78;67.25
66594;DHT22;53450;42.584;23.366;2022-08-03T04:41:05;18.58;68.63
66594;DHT22;53450;42.584;23.366;2022-08-03T04:43:58;18.65;68.36
66594;DHT22;53450;42.584;23.366;2022-08-03T04:46:31;18.70;68.43
66594;DHT22;53450;42.584;23.366;2022-08-03T04:48:58;18.89;68.57
66594;DHT22;53450;42.584;23.366;2022-08-03T04:51:24;19.02;68.16
66594;DHT22;53450;42.584;23.366;2022-08-03T04:53:50;19.15;67.82
66594;DHT22;53450;42.584;23.366;2022-08-03T04:56:16;19.16;67.63
66594;DHT22;53450;42.584;23.366;2022-08-03T04:58:42;19.05;69.60
66594;DHT22;53450;42.584;23.366;2022-08-03T05:01:07;19.09;69.91
66594;DHT22;53450;42.584;23.366;2022-08-03T05:03:33;19.04;68.97
66594;DHT22;53450;42.584;23.366;2022-08-03T05:05:58;19.09;67.19
66594;DHT22;53450;42.584;23.366;2022-08-03T05:08:24;19.11;68.01
66594;DHT22;53450;42.584;23.366;2022-08-03T05:10:49;19.05;67.77
66594;DHT22;53450;42.584;23.366;2022-08-03T05:13:15;19.26;67.28
66594;DHT22;53450;42.584;23.366;2022-08-03T05:15:40;19.47;66.87
66594;DHT22;53450;42.584;23.366;2022-08-03T05:18:32;19.55;65.83
66594;DHT22;53450;42.584;23.366;2022-08-03T05:20:58;19.71;63.43
66594;DHT22;53450;42.584;23.366;2022-08-03T05:23:23;19.84;63.24
66594;DHT22;53450;42.584;23.366;2022-08-03T05:25:49;20.01;60.26
66594;DHT22;53450;42.584;23.366;2022-08-03T05:28:14;20.05;60.10
66594;DHT22;53450;42.584;23.366;2022-08-03T05:30:40;20.22;61.55
66594;DHT22;53450;42.584;23.366;2022-08-03T05:33:07;20.39;61.19
66594;DHT22;53450;42.584;23.366;2022-08-03T05:35:58;20.36;61.70
66594;DHT22;53450;42.584;23.366;2022-08-03T05:38:49;20.48;60.08
66594;DHT22;53450;42.584;23.366;2022-08-03T05:41:40;20.57;60.12
66594;DHT22;53450;42.584;23.366;2022-08-03T05:44:31;20.61;60.24
66594;DHT22;53450;42.584;23.366;2022-08-03T05:46:57;20.62;60.48
66594;DHT22;53450;42.584;23.366;2022-08-03T05:49:23;20.57;60.01
66594;DHT22;53450;42.584;23.366;2022-08-03T05:51:49;20.71;60.57
66594;DHT22;53450;42.584;23.366;2022-08-03T05:54:15;20.65;61.71
66594;DHT22;53450;42.584;23.366;2022-08-03T05:56:40;20.62;61.06
66594;DHT22;53450;42.584;23.366;2022-08-03T05:59:06;20.73;61.14
66594;DHT22;53450;42.584;23.366;2022-08-03T06:01:57;20.82;60.80
66594;DHT22;53450;42.584;23.366;2022-08-03T06:04:22;20.87;60.10
66594;DHT22;53450;42.584;23.366;2022-08-03T06:06:48;21.03;60.06
66594;DHT22;53450;42.584;23.366;2022-08-03T06:09:15;21.11;60.13
66594;DHT22;53450;42.584;23.366;2022-08-03T06:11:41;21.26;60.43
66594;DHT22;53450;42.584;23.366;2022-08-03T06:14:07;21.31;59.26
66594;DHT22;53450;42.584;23.366;2022-08-03T06:16:33;21.40;59.53
66594;DHT22;53450;42.584;23.366;2022-08-03T06:19:00;21.44;58.09
66594;DHT22;53450;42.584;23.366;2022-08-03T06:21:25;21.34;58.34
66594;DHT22;53450;42.584;23.366;2022-08-03T06:23:51;21.45;59.08
66594;DHT22;53450;42.584;23.366;2022-08-03T06:26:16;21.52;60.28
66594;DHT22;53450;42.584;23.366;2022-08-03T06:28:43;21.61;59.59
66594;DHT22;53450;42.584;23.366;2022-08-03T06:31:09;21.74;59.50
66594;DHT22;53450;42.584;23.366;2022-08-03T06:33:35;21.78;58.34
66594;DHT22;53450;42.584;23.366;2022-08-03T06:36:01;21.89;58.89
66594;DHT22;53450;42.584;23.366;2022-08-03T06:38:27;22.03;58.15
66594;DHT22;53450;42.584;23.366;2022-08-03T06:40:53;22.16;56.91
66594;DHT22;53450;42.584;23.366;2022-08-03T06:43:19;22.17;57.08
66594;DHT22;53450;42.584;23.366;2022-08-03T06:45:44;22.13;56.85
66594;DHT22;53450;42.584;23.366;2022-08-03T06:48:11;22.05;56.28
66594;DHT22;53450;42.584;23.366;2022-08-03T06:50:39;22.06;55.10
66594;DHT22;53450;42.584;23.366;2022-08-03T06:54:43;22.17;54.83
66594;DHT22;53450;42.584;23.366;2022-08-03T06:57:09;22.21;52.88
66594;DHT22;53450;42.584;23.366;2022-08-03T06:59:36;22.37;53.12
66594;DHT22;53450;42.584;23.366;2022-08-03T07:02:01;22.58;53.69
66594;DHT22;53450;42.584;23.366;2022-08-03T07:04:27;22.56;54.08
66594;DHT22;53450;42.584;23.366;2022-08-03T07:06:52;22.72;53.13
66594;DHT22;53450;42.584;23.366;2022-08-03T07:09:19;22.90;54.15
66594;DHT22;53450;42.584;23.366;2022-08-03T07:11:45;22.86;54.98
66594;DHT22;53450;42.584;23.366;2022-08-03T07:14:10;22.87;56.00
66594;DHT22;53450;42.584;23.366;2022-08-03T07:16:36;22.90;56.60
66594;DHT22;53450;42.584;23.366;2022-08-03T07:19:01;22.91;54.88
66594;DHT22;53450;42.584;23.366;2022-08-03T07:21:27;22.94;55.81
66594;DHT22;53450;42.584;23.366;2022-08-03T07:23:53;22.95;53.88
66594;DHT22;53450;42.584;23.366;2022-08-03T07:26:18;22.90;55.36
66594;DHT22;53450;42.584;23.366;2022-08-03T07:28:44;22.84;54.64
66594;DHT22;53450;42.584;23.366;2022-08-03T07:31:34;22.83;55.73
66594;DHT22;53450;42.584;23.366;2022-08-03T07:34:04;22.88;54.20
66594;DHT22;53450;42.584;23.366;2022-08-03T07:36:30;22.84;54.73
66594;DHT22;53450;42.584;23.366;2022-08-03T07:38:56;22.98;55.36
66594;DHT22;53450;42.584;23.366;2022-08-03T07:41:22;22.97;51.56
66594;DHT22;53450;42.584;23.366;2022-08-03T07:43:48;23.11;54.00
66594;DHT22;53450;42.584;23.366;2022-08-03T07:46:13;23.19;53.08
66594;DHT22;53450;42.584;23.366;2022-08-03T07:48:39;23.22;52.60
66594;DHT22;53450;42.584;23.366;2022-08-03T07:51:05;23.32;53.22
66594;DHT22;53450;42.584;23.366;2022-08-03T07:53:56;23.35;52.24
66594;DHT22;53450;42.584;23.366;2022-08-03T07:56:47;23.22;53.44
66594;DHT22;53450;42.584;23.366;2022-08-03T07:59:13;23.22;53.41
66594;DHT22;53450;42.584;23.366;2022-08-03T08:01:38;23.26;52.41
66594;DHT22;53450;42.584;23.366;2022-08-03T08:04:04;23.41;52.80
66594;DHT22;53450;42.584;23.366;2022-08-03T08:06:29;23.39;53.31
66594;DHT22;53450;42.584;23.366;2022-08-03T08:08:57;23.30;52.15
66594;DHT22;53450;42.584;23.366;2022-08-03T08:11:25;23.20;52.24
66594;DHT22;53450;42.584;23.366;2022-08-03T08:13:51;23.16;52.21
66594;DHT22;53450;42.584;23.366;2022-08-03T08:16:17;23.42;52.99
66594;DHT22;53450;42.584;23.366;2022-08-03T08:18:42;23.62;51.87
66594;DHT22;53450;42.584;23.366;2022-08-03T08:21:08;23.67;51.50
66594;DHT22;53450;42.584;23.366;2022-08-03T08:23:34;23.76;52.23
66594;DHT22;53450;42.584;23.366;2022-08-03T08:25:59;23.87;52.14
66594;DHT22;53450;42.584;23.366;2022-08-03T08:28:25;23.94;51.07
66594;DHT22;53450;42.584;23.366;2022-08-03T08:30:51;23.93;51.33
66594;DHT22;53450;42.584;23.366;2022-08-03T08:33:17;23.90;52.23
66594;DHT22;53450;42.584;23.366;2022-08-03T08:37:45;23.94;51.75
66594;DHT22;53450;42.584;23.366;2022-08-03T08:40:11;24.17;51.07
66594;DHT22;53450;42.584;23.366;2022-08-03T08:42:39;24.15;50.35
66594;DHT22;53450;42.584;23.366;2022-08-03T08:45:05;24.35;49.68
66594;DHT22;53450;42.584;23.366;2022-08-03T08:47:36;24.39;49.65
66594;DHT22;53450;42.584;23.366;2022-08-03T08:50:03;24.48;51.08
66594;DHT22;53450;42.584;23.366;2022-08-03T08:52:29;24.68;50.08
66594;DHT22;53450;42.584;23.366;2022-08-03T08:54:58;24.83;50.98
66594;DHT22;53450;42.584;23.366;2022-08-03T08:57:32;24.93;50.35
66594;DHT22;53450;42.584;23.366;2022-08-03T08:59:58;24.97;48.46
66594;DHT22;53450;42.584;23.366;2022-08-03T09:02:28;25.03;47.83
66594;DHT22;53450;42.584;23.366;2022-08-03T09:04:54;24.85;48.68
66594;DHT22;53450;42.584;23.366;2022-08-03T09:07:20;24.56;48.94
66594;DHT22;53450;42.584;23.366;2022-08-03T09:10:12;24.69;47.40
66594;DHT22;53450;42.584;23.366;2022-08-03T09:13:03;24.66;48.79
66594;DHT22;53450;42.584;23.366;2022-08-03T09:15:31;24.73;47.19
66594;DHT22;53450;42.584;23.366;2022-08-03T09:18:49;24.80;46.84
66594;DHT22;53450;42.584;23.366;2022-08-03T09:21:24;24.89;46.67
66594;DHT22;53450;42.584;23.366;2022-08-03T09:23:53;25.04;44.98
66594;DHT22;53450;42.584;23.366;2022-08-03T09:26:22;25.23;43.68
66594;DHT22;53450;42.584;23.366;2022-08-03T09:31:03;25.19;45.34
66594;DHT22;53450;42.584;23.366;2022-08-03T09:33:28;25.35;45.52
66594;DHT22;53450;42.584;23.366;2022-08-03T09:35:54;25.40;44.65
66594;DHT22;53450;42.584;23.366;2022-08-03T09:38:24;25.67;45.18
66594;DHT22;53450;42.584;23.366;2022-08-03T09:42:35;25.65;44.11
66594;DHT22;53450;42.584;23.366;2022-08-03T09:45:03;25.60;44.24
66594;DHT22;53450;42.584;23.366;2022-08-03T09:47:31;25.68;43.91
66594;DHT22;53450;42.584;23.366;2022-08-03T09:50:00;25.77;45.18
66594;DHT22;53450;42.584;23.366;2022-08-03T09:52:39;25.77;43.90
66594;DHT22;53450;42.584;23.366;2022-08-03T09:55:30;25.92;43.97
66594;DHT22;53450;42.584;23.366;2022-08-03T09:58:06;25.91;42.02
66594;DHT22;53450;42.584;23.366;2022-08-03T10:03:41;26.13;42.43
66594;DHT22;53450;42.584;23.366;2022-08-03T10:06:32;26.22;41.92
66594;DHT22;53450;42.584;23.366;2022-08-03T10:09:23;26.26;42.71
66594;DHT22;53450;42.584;23.366;2022-08-03T10:11:49;26.29;41.94
66594;DHT22;53450;42.584;23.366;2022-08-03T10:14:15;26.25;43.60
66594;DHT22;53450;42.584;23.366;2022-08-03T10:16:44;26.41;42.19
66594;DHT22;53450;42.584;23.366;2022-08-03T10:19:11;26.03;41.76
66594;DHT22;53450;42.584;23.366;2022-08-03T10:21:48;26.25;41.63
66594;DHT22;53450;42.584;23.366;2022-08-03T10:24:16;26.10;40.67
66594;DHT22;53450;42.584;23.366;2022-08-03T10:26:43;26.02;43.03
66594;DHT22;53450;42.584;23.366;2022-08-03T10:29:16;26.40;42.28
66594;DHT22;53450;42.584;23.366;2022-08-03T10:31:44;26.47;42.35
66594;DHT22;53450;42.584;23.366;2022-08-03T10:34:17;26.68;43.00
66594;DHT22;53450;42.584;23.366;2022-08-03T10:36:43;26.95;41.12
66594;DHT22;53450;42.584;23.366;2022-08-03T10:39:11;27.09;39.88
66594;DHT22;53450;42.584;23.366;2022-08-03T10:41:39;26.65;39.79
66594;DHT22;53450;42.584;23.366;2022-08-03T10:44:17;26.57;39.05
66594;DHT22;53450;42.584;23.366;2022-08-03T10:46:44;26.91;39.65
66594;DHT22;53450;42.584;23.366;2022-08-03T10:49:16;26.95;41.39
66594;DHT22;53450;42.584;23.366;2022-08-03T10:51:46;27.32;41.37
66594;DHT22;53450;42.584;23.366;2022-08-03T10:54:41;27.31;39.17
66594;DHT22;53450;42.584;23.366;2022-08-03T10:57:49;27.49;39.75
66594;DHT22;53450;42.584;23.366;2022-08-03T11:00:25;27.28;39.28
66594;DHT22;53450;42.584;23.366;2022-08-03T11:03:13;27.09;40.03
66594;DHT22;53450;42.584;23.366;2022-08-03T11:05:44;27.24;40.38
66594;DHT22;53450;42.584;23.366;2022-08-03T11:08:16;27.52;39.92
66594;DHT22;53450;42.584;23.366;2022-08-03T11:10:42;26.88;38.89
66594;DHT22;53450;42.584;23.366;2022-08-03T11:13:08;26.50;40.44
66594;DHT22;53450;42.584;23.366;2022-08-03T11:15:35;26.83;42.55
66594;DHT22;53450;42.584;23.366;2022-08-03T11:18:08;26.98;39.40
66594;DHT22;53450;42.584;23.366;2022-08-03T11:20:54;26.63;40.01
66594;DHT22;53450;42.584;23.366;2022-08-03T11:26:16;26.74;39.68
66594;DHT22;53450;42.584;23.366;2022-08-03T11:28:46;26.76;39.71
66594;DHT22;53450;42.584;23.366;2022-08-03T11:34:07;26.78;40.23
66594;DHT22;53450;42.584;23.366;2022-08-03T11:39:43;27.08;39.20
66594;DHT22;53450;42.584;23.366;2022-08-03T11:44:59;27.70;37.20
66594;DHT22;53450;42.584;23.366;2022-08-03T11:47:27;28.15;36.87
66594;DHT22;53450;42.584;23.366;2022-08-03T11:49:58;28.08;36.64
66594;DHT22;53450;42.584;23.366;2022-08-03T11:52:26;28.04;35.86
66594;DHT22;53450;42.584;23.366;2022-08-03T11:54:58;28.15;35.80
66594;DHT22;53450;42.584;23.366;2022-08-03T11:57:31;28.28;36.63
66594;DHT22;53450;42.584;23.366;2022-08-03T11:59:57;28.51;37.15
66594;DHT22;53450;42.584;23.366;2022-08-03T12:02:23;28.13;37.09
66594;DHT22;53450;42.584;23.366;2022-08-03T12:04:54;27.83;38.17
66594;DHT22;53450;42.584;23.366;2022-08-03T12:07:25;27.60;38.41
66594;DHT22;53450;42.584;23.366;2022-08-03T12:10:13;27.49;38.40
66594;DHT22;53450;42.584;23.366;2022-08-03T12:12:40;27.22;39.74
66594;DHT22;53450;42.584;23.366;2022-08-03T12:15:07;26.92;41.24
66594;DHT22;53450;42.584;23.366;2022-08-03T12:17:34;26.84;40.46
66594;DHT22;53450;42.584;23.366;2022-08-03T12:20:00;26.67;40.80
66594;DHT22;53450;42.584;23.366;2022-08-03T12:22:38;26.70;40.56
66594;DHT22;53450;42.584;23.366;2022-08-03T12:25:07;26.77;40.76
66594;DHT22;53450;42.584;23.366;2022-08-03T12:27:34;27.11;39.96
66594;DHT22;53450;42.584;23.366;2022-08-03T12:30:25;27.21;38.79
66594;DHT22;53450;42.584;23.366;2022-08-03T12:33:25;27.11;41.56
66594;DHT22;53450;42.584;23.366;2022-08-03T12:36:06;26.78;43.16
66594;DHT22;53450;42.584;23.366;2022-08-03T12:38:34;26.41;42.90
66594;DHT22;53450;42.584;23.366;2022-08-03T12:41:03;26.36;43.35
66594;DHT22;53450;42.584;23.366;2022-08-03T12:43:29;26.39;44.81
66594;DHT22;53450;42.584;23.366;2022-08-03T12:46:15;26.29;43.77
66594;DHT22;53450;42.584;23.366;2022-08-03T12:49:20;26.32;42.52
66594;DHT22;53450;42.584;23.366;2022-08-03T12:54:22;26.60;43.20
66594;DHT22;53450;42.584;23.366;2022-08-03T12:59:37;26.76;39.73
66594;DHT22;53450;42.584;23.366;2022-08-03T13:02:18;26.59;41.20
66594;DHT22;53450;42.584;23.366;2022-08-03T13:04:45;26.44;42.43
66594;DHT22;53450;42.584;23.366;2022-08-03T13:07:11;26.76;40.99
66594;DHT22;53450;42.584;23.366;2022-08-03T13:09:48;27.07;41.19
66594;DHT22;53450;42.584;23.366;2022-08-03T13:12:16;27.38;39.67
66594;DHT22;53450;42.584;23.366;2022-08-03T13:14:44;27.21;39.84
66594;DHT22;53450;42.584;23.366;2022-08-03T13:17:10;26.98;40.32
66594;DHT22;53450;42.584;23.366;2022-08-03T13:19:36;27.05;43.89
66594;DHT22;53450;42.584;23.366;2022-08-03T13:22:23;27.28;44.06
66594;DHT22;53450;42.584;23.366;2022-08-03T13:24:51;26.67;46.24
66594;DHT22;53450;42.584;23.366;2022-08-03T13:27:17;26.32;46.76
66594;DHT22;53450;42.584;23.366;2022-08-03T13:29:43;26.15;46.91
66594;DHT22;53450;42.584;23.366;2022-08-03T13:32:09;25.64;46.67
66594;DHT22;53450;42.584;23.366;2022-08-03T13:35:01;25.45;47.68
66594;DHT22;53450;42.584;23.366;2022-08-03T13:37:55;25.06;49.28
66594;DHT22;53450;42.584;23.366;2022-08-03T13:40:20;24.93;48.42
66594;DHT22;53450;42.584;23.366;2022-08-03T13:42:46;24.71;49.46
66594;DHT22;53450;42.584;23.366;2022-08-03T13:45:11;24.65;50.09
66594;DHT22;53450;42.584;23.366;2022-08-03T13:47:37;24.59;50.68
66594;DHT22;53450;42.584;23.366;2022-08-03T13:50:03;24.55;49.92
66594;DHT22;53450;42.584;23.366;2022-08-03T13:52:30;24.56;50.33
66594;DHT22;53450;42.584;23.366;2022-08-03T13:54:56;24.48;51.73
66594;DHT22;53450;42.584;23.366;2022-08-03T13:57:22;24.38;52.09
66594;DHT22;53450;42.584;23.366;2022-08-03T13:59:48;24.41;51.91
66594;DHT22;53450;42.584;23.366;2022-08-03T14:02:15;24.49;51.42
66594;DHT22;53450;42.584;23.366;2022-08-03T14:04:40;24.62;51.56
66594;DHT22;53450;42.584;23.366;2022-08-03T14:07:06;24.89;51.92
66594;DHT22;53450;42.584;23.366;2022-08-03T14:09:32;24.99;50.10
66594;DHT22;53450;42.584;23.366;2022-08-03T14:11:59;25.03;49.51
66594;DHT22;53450;42.584;23.366;2022-08-03T14:14:24;24.93;48.50
66594;DHT22;53450;42.584;23.366;2022-08-03T14:16:50;25.00;49.76
66594;DHT22;53450;42.584;23.366;2022-08-03T14:19:15;25.03;49.76
66594;DHT22;53450;42.584;23.366;2022-08-03T14:21:41;25.10;49.31
66594;DHT22;53450;42.584;23.366;2022-08-03T14:24:07;25.20;49.64
66594;DHT22;53450;42.584;23.366;2022-08-03T14:26:32;25.35;49.77
66594;DHT22;53450;42.584;23.366;2022-08-03T14:28:58;25.48;49.47
66594;DHT22;53450;42.584;23.366;2022-08-03T14:31:24;25.62;48.57
66594;DHT22;53450;42.584;23.366;2022-08-03T14:33:51;25.55;47.79
66594;DHT22;53450;42.584;23.366;2022-08-03T14:36:16;25.72;48.15
66594;DHT22;53450;42.584;23.366;2022-08-03T14:38:42;26.01;49.09
66594;DHT22;53450;42.584;23.366;2022-08-03T14:41:07;26.13;48.31
66594;DHT22;53450;42.584;23.366;2022-08-03T14:43:33;26.32;47.83
66594;DHT22;53450;42.584;23.366;2022-08-03T14:46:01;26.20;45.44
66594;DHT22;53450;42.584;23.366;2022-08-03T14:48:27;26.46;44.63
66594;DHT22;53450;42.584;23.366;2022-08-03T14:50:53;26.32;45.89
66594;DHT22;53450;42.584;23.366;2022-08-03T14:53:19;26.23;45.19
66594;DHT22;53450;42.584;23.366;2022-08-03T14:55:46;26.01;44.80
66594;DHT22;53450;42.584;23.366;2022-08-03T14:58:14;25.89;44.94
66594;DHT22;53450;42.584;23.366;2022-08-03T15:00:42;26.05;46.14
66594;DHT22;53450;42.584;23.366;2022-08-03T15:03:08;26.26;45.14
66594;DHT22;53450;42.584;23.366;2022-08-03T15:05:34;26.36;45.32
66594;DHT22;53450;42.584;23.366;2022-08-03T15:07:59;26.64;45.39
66594;DHT22;53450;42.584;23.366;2022-08-03T15:10:25;26.47;45.41
66594;DHT22;53450;42.584;23.366;2022-08-03T15:12:50;26.23;46.53
66594;DHT22;53450;42.584;23.366;2022-08-03T15:15:16;26.26;46.31
66594;DHT22;53450;42.584;23.366;2022-08-03T15:17:41;26.18;46.97
66594;DHT22;53450;42.584;23.366;2022-08-03T15:20:07;26.16;47.44
66594;DHT22;53450;42.584;23.366;2022-08-03T15:22:33;26.05;47.48
66594;DHT22;53450;42.584;23.366;2022-08-03T15:25:02;25.96;47.57
66594;DHT22;53450;42.584;23.366;2022-08-03T15:27:28;26.05;47.97
66594;DHT22;53450;42.584;23.366;2022-08-03T15:29:53;25.82;49.03
66594;DHT22;53450;42.584;23.366;2022-08-03T15:32:19;25.43;50.52
66594;DHT22;53450;42.584;23.366;2022-08-03T15:34:46;24.97;50.14
66594;DHT22;53450;42.584;23.366;2022-08-03T15:37:11;24.38;49.33
66594;DHT22;53450;42.584;23.366;2022-08-03T15:39:37;23.60;51.64
66594;DHT22;53450;42.584;23.366;2022-08-03T15:42:03;23.35;56.29
66594;DHT22;53450;42.584;23.366;2022-08-03T15:44:28;23.05;59.24
66594;DHT22;53450;42.584;23.366;2022-08-03T15:46:54;22.51;60.92
66594;DHT22;53450;42.584;23.366;2022-08-03T15:49:19;22.10;63.23
66594;DHT22;53450;42.584;23.366;2022-08-03T15:51:45;21.91;63.50
66594;DHT22;53450;42.584;23.366;2022-08-03T15:54:11;21.74;64.82
66594;DHT22;53450;42.584;23.366;2022-08-03T15:56:37;21.59;64.50
66594;DHT22;53450;42.584;23.366;2022-08-03T15:59:02;21.44;63.56
66594;DHT22;53450;42.584;23.366;2022-08-03T16:01:29;21.68;66.68
66594;DHT22;53450;42.584;23.366;2022-08-03T16:03:54;21.71;67.66
66594;DHT22;53450;42.584;23.366;2022-08-03T16:06:20;21.52;67.60